sensor_id;sensor_type;location;lat;lon;timestamp;pressure;altitude;pressure_sealevel;temperature;humidity
51289;BME280;37372;52.294;5.152;2023-03-04T00:01:46;102723.50;;;5.06;68.63
51289;BME280;37372;52.294;5.152;2023-03-04T00:04:13;102731.41;;;5.00;68.99
51289;BME280;37372;52.294;5.152;2023-03-04T00:06:40;102732.66;;;5.05;68.57
51289;BME280;37372;52.294;5.152;2023-03-04T00:09:08;102730.97;;;5.04;68.79
51289;BME280;37372;52.294;5.152;2023-03-04T00:11:44;102735.81;;;5.01;69.16
51289;BME280;37372;52.294;5.152;2023-03-04T00:14:12;102733.78;;;5.12;69.10
51289;BME280;37372;52.294;5.152;2023-03-04T00:16:43;102729.63;;;5.08;68.40
51289;BME280;37372;52.294;5.152;2023-03-04T00:19:22;102728.25;;;5.04;68.49
51289;BME280;37372;52.294;5.152;2023-03-04T00:21:50;102730.38;;;5.01;69.06
51289;BME280;37372;52.294;5.152;2023-03-04T00:24:21;102745.69;;;5.02;69.47
51289;BME280;37372;52.294;5.152;2023-03-04T00:26:50;102735.97;;;4.99;68.36
51289;BME280;37372;52.294;5.152;2023-03-04T00:29:21;102733.31;;;4.89;68.24
51289;BME280;37372;52.294;5.152;2023-03-04T00:31:51;102731.13;;;4.93;67.17
51289;BME280;37372;52.294;5.152;2023-03-04T00:34:21;102735.44;;;4.86;67.49
51289;BME280;37372;52.294;5.152;2023-03-04T00:36:50;102731.81;;;4.95;67.37
51289;BME280;37372;52.294;5.152;2023-03-04T00:39:22;102726.00;;;4.90;67.34
51289;BME280;37372;52.294;5.152;2023-03-04T00:41:50;102730.84;;;4.96;66.90
51289;BME280;37372;52.294;5.152;2023-03-04T00:44:16;102728.56;;;4.92;67.71
51289;BME280;37372;52.294;5.152;2023-03-04T00:46:55;102730.72;;;4.88;68.10
51289;BME280;37372;52.294;5.152;2023-03-04T00:49:20;102727.13;;;4.87;68.56
51289;BME280;37372;52.294;5.152;2023-03-04T00:51:52;102732.09;;;5.02;67.46
51289;BME280;37372;52.294;5.152;2023-03-04T00:54:18;102730.13;;;4.94;68.07
51289;BME280;37372;52.294;5.152;2023-03-04T00:56:53;102729.84;;;4.97;67.87
51289;BME280;37372;52.294;5.152;2023-03-04T00:59:19;102733.84;;;4.93;68.39
51289;BME280;37372;52.294;5.152;2023-03-04T01:01:47;102734.72;;;4.94;68.38
51289;BME280;37372;52.294;5.152;2023-03-04T01:04:29;102741.09;;;5.02;68.12
51289;BME280;37372;52.294;5.152;2023-03-04T01:06:55;102747.16;;;4.96;68.45
51289;BME280;37372;52.294;5.152;2023-03-04T01:09:30;102739.28;;;4.93;68.40
51289;BME280;37372;52.294;5.152;2023-03-04T01:12:02;102732.84;;;4.94;68.95
51289;BME280;37372;52.294;5.152;2023-03-04T01:14:28;102735.13;;;4.99;68.66
51289;BME280;37372;52.294;5.152;2023-03-04T01:16:53;102732.84;;;4.94;69.14
51289;BME280;37372;52.294;5.152;2023-03-04T01:19:19;102727.56;;;4.93;67.84
51289;BME280;37372;52.294;5.152;2023-03-04T01:21:55;102731.28;;;4.92;68.68
51289;BME280;37372;52.294;5.152;2023-03-04T01:24:29;102728.25;;;4.95;68.66
51289;BME280;37372;52.294;5.152;2023-03-04T01:26:58;102724.84;;;4.93;68.99
51289;BME280;37372;52.294;5.152;2023-03-04T01:29:23;102713.53;;;4.97;67.90
51289;BME280;37372;52.294;5.152;2023-03-04T01:31:54;102716.84;;;4.91;67.41
51289;BME280;37372;52.294;5.152;2023-03-04T01:34:23;102712.41;;;4.90;66.57
51289;BME280;37372;52.294;5.152;2023-03-04T01:37:02;102709.38;;;4.93;66.96
51289;BME280;37372;52.294;5.152;2023-03-04T01:39:29;102705.81;;;4.93;67.23
51289;BME280;37372;52.294;5.152;2023-03-04T01:41:59;102711.09;;;4.94;67.49
51289;BME280;37372;52.294;5.152;2023-03-04T01:44:33;102711.41;;;4.91;67.86
51289;BME280;37372;52.294;5.152;2023-03-04T01:47:12;102702.50;;;4.89;68.21
51289;BME280;37372;52.294;5.152;2023-03-04T01:49:38;102703.06;;;4.93;68.23
51289;BME280;37372;52.294;5.152;2023-03-04T01:52:05;102700.94;;;4.96;67.23
51289;BME280;37372;52.294;5.152;2023-03-04T01:54:40;102692.34;;;4.91;68.11
51289;BME280;37372;52.294;5.152;2023-03-04T01:57:24;102692.34;;;4.91;67.81
51289;BME280;37372;52.294;5.152;2023-03-04T02:00:21;102694.94;;;4.83;68.15
51289;BME280;37372;52.294;5.152;2023-03-04T02:03:12;102693.38;;;4.90;68.48
51289;BME280;37372;52.294;5.152;2023-03-04T02:05:42;102688.91;;;4.89;68.54
51289;BME280;37372;52.294;5.152;2023-03-04T02:08:11;102689.50;;;4.83;69.59
51289;BME280;37372;52.294;5.152;2023-03-04T02:10:37;102685.38;;;4.79;69.60
51289;BME280;37372;52.294;5.152;2023-03-04T02:13:07;102678.06;;;4.79;69.64
51289;BME280;37372;52.294;5.152;2023-03-04T02:15:35;102673.22;;;4.73;69.41
51289;BME280;37372;52.294;5.152;2023-03-04T02:18:22;102667.47;;;4.76;69.89
51289;BME280;37372;52.294;5.152;2023-03-04T02:23:34;102669.91;;;4.79;68.17
51289;BME280;37372;52.294;5.152;2023-03-04T02:26:20;102657.78;;;4.74;68.60
51289;BME280;37372;52.294;5.152;2023-03-04T02:28:50;102658.34;;;4.77;68.45
51289;BME280;37372;52.294;5.152;2023-03-04T02:34:33;102651.31;;;4.75;68.46
51289;BME280;37372;52.294;5.152;2023-03-04T02:37:20;102656.00;;;4.82;68.37
51289;BME280;37372;52.294;5.152;2023-03-04T02:39:53;102642.88;;;4.78;68.24
51289;BME280;37372;52.294;5.152;2023-03-04T02:42:18;102634.56;;;4.79;67.82
51289;BME280;37372;52.294;5.152;2023-03-04T02:44:47;102635.59;;;4.78;68.49
51289;BME280;37372;52.294;5.152;2023-03-04T02:47:16;102639.16;;;4.79;68.49
51289;BME280;37372;52.294;5.152;2023-03-04T02:49:43;102636.13;;;4.82;68.23
51289;BME280;37372;52.294;5.152;2023-03-04T02:54:40;102633.56;;;4.80;68.98
51289;BME280;37372;52.294;5.152;2023-03-04T02:57:11;102625.72;;;4.77;69.20
51289;BME280;37372;52.294;5.152;2023-03-04T02:59:38;102628.81;;;4.82;68.98
51289;BME280;37372;52.294;5.152;2023-03-04T03:02:09;102630.84;;;4.80;69.30
51289;BME280;37372;52.294;5.152;2023-03-04T03:04:40;102627.16;;;4.72;70.43
51289;BME280;37372;52.294;5.152;2023-03-04T03:07:07;102625.72;;;4.77;70.09
51289;BME280;37372;52.294;5.152;2023-03-04T03:09:37;102622.59;;;4.72;70.88
51289;BME280;37372;52.294;5.152;2023-03-04T03:12:03;102627.88;;;4.74;70.54
51289;BME280;37372;52.294;5.152;2023-03-04T03:14:29;102623.44;;;4.73;70.55
51289;BME280;37372;52.294;5.152;2023-03-04T03:16:56;102623.59;;;4.71;70.69
51289;BME280;37372;52.294;5.152;2023-03-04T03:19:24;102620.41;;;4.76;70.75
51289;BME280;37372;52.294;5.152;2023-03-04T03:21:50;102618.69;;;4.75;71.32
51289;BME280;37372;52.294;5.152;2023-03-04T03:24:15;102616.28;;;4.72;71.37
51289;BME280;37372;52.294;5.152;2023-03-04T03:26:46;102619.00;;;4.72;71.46
51289;BME280;37372;52.294;5.152;2023-03-04T03:29:12;102620.28;;;4.77;71.01
51289;BME280;37372;52.294;5.152;2023-03-04T03:31:38;102623.53;;;4.81;70.60
51289;BME280;37372;52.294;5.152;2023-03-04T03:34:04;102617.41;;;4.79;71.09
51289;BME280;37372;52.294;5.152;2023-03-04T03:36:31;102621.56;;;4.73;71.34
51289;BME280;37372;52.294;5.152;2023-03-04T03:38:58;102608.69;;;4.75;71.57
51289;BME280;37372;52.294;5.152;2023-03-04T03:41:23;102612.97;;;4.78;70.69
51289;BME280;37372;52.294;5.152;2023-03-04T03:43:48;102614.53;;;4.80;70.04
51289;BME280;37372;52.294;5.152;2023-03-04T03:46:21;102612.25;;;4.76;70.89
51289;BME280;37372;52.294;5.152;2023-03-04T03:48:47;102609.09;;;4.80;70.77
51289;BME280;37372;52.294;5.152;2023-03-04T03:51:12;102610.97;;;4.80;70.79
51289;BME280;37372;52.294;5.152;2023-03-04T03:53:38;102611.97;;;4.79;71.10
51289;BME280;37372;52.294;5.152;2023-03-04T03:56:04;102612.84;;;4.70;72.04
51289;BME280;37372;52.294;5.152;2023-03-04T03:58:30;102613.56;;;4.72;72.00
51289;BME280;37372;52.294;5.152;2023-03-04T04:01:08;102616.03;;;4.65;73.25
51289;BME280;37372;52.294;5.152;2023-03-04T04:03:34;102610.44;;;4.67;72.56
51289;BME280;37372;52.294;5.152;2023-03-04T04:06:00;102601.19;;;4.59;72.85
51289;BME280;37372;52.294;5.152;2023-03-04T04:08:31;102612.19;;;4.58;73.04
51289;BME280;37372;52.294;5.152;2023-03-04T04:11:01;102610.88;;;4.62;73.34
51289;BME280;37372;52.294;5.152;2023-03-04T04:13:36;102611.78;;;4.53;74.01
51289;BME280;37372;52.294;5.152;2023-03-04T04:16:03;102617.47;;;4.59;73.67
51289;BME280;37372;52.294;5.152;2023-03-04T04:18:38;102618.03;;;4.63;73.48
51289;BME280;37372;52.294;5.152;2023-03-04T04:21:04;102618.94;;;4.54;74.21
51289;BME280;37372;52.294;5.152;2023-03-04T04:23:36;102618.63;;;4.57;74.30
51289;BME280;37372;52.294;5.152;2023-03-04T04:26:11;102612.78;;;4.52;74.53
51289;BME280;37372;52.294;5.152;2023-03-04T04:28:39;102614.19;;;4.56;74.58
51289;BME280;37372;52.294;5.152;2023-03-04T04:31:08;102617.75;;;4.56;74.45
51289;BME280;37372;52.294;5.152;2023-03-04T04:33:35;102609.31;;;4.59;74.64
51289;BME280;37372;52.294;5.152;2023-03-04T04:36:04;102616.91;;;4.56;74.80
51289;BME280;37372;52.294;5.152;2023-03-04T04:38:41;102619.19;;;4.60;74.33
51289;BME280;37372;52.294;5.152;2023-03-04T04:41:19;102616.78;;;4.57;74.56
51289;BME280;37372;52.294;5.152;2023-03-04T04:43:44;102616.63;;;4.59;74.54
51289;BME280;37372;52.294;5.152;2023-03-04T04:46:10;102614.06;;;4.57;74.36
51289;BME280;37372;52.294;5.152;2023-03-04T04:48:42;102613.06;;;4.58;74.16
51289;BME280;37372;52.294;5.152;2023-03-04T04:51:09;102602.88;;;4.60;74.28
51289;BME280;37372;52.294;5.152;2023-03-04T04:53:42;102612.31;;;4.56;74.49
51289;BME280;37372;52.294;5.152;2023-03-04T04:56:19;102615.34;;;4.53;74.76
51289;BME280;37372;52.294;5.152;2023-03-04T04:58:48;102613.75;;;4.60;73.94
51289;BME280;37372;52.294;5.152;2023-03-04T05:01:17;102616.63;;;4.59;73.83
51289;BME280;37372;52.294;5.152;2023-03-04T05:03:45;102616.78;;;4.57;73.87
51289;BME280;37372;52.294;5.152;2023-03-04T05:06:17;102616.91;;;4.56;74.06
51289;BME280;37372;52.294;5.152;2023-03-04T05:08:43;102618.63;;;4.57;74.04
51289;BME280;37372;52.294;5.152;2023-03-04T05:11:09;102610.78;;;4.54;74.25
51289;BME280;37372;52.294;5.152;2023-03-04T05:13:34;102615.91;;;4.57;74.26
51289;BME280;37372;52.294;5.152;2023-03-04T05:16:05;102609.22;;;4.51;74.51
51289;BME280;37372;52.294;5.152;2023-03-04T05:18:31;102612.31;;;4.56;74.62
51289;BME280;37372;52.294;5.152;2023-03-04T05:20:59;102612.03;;;4.59;74.27
51289;BME280;37372;52.294;5.152;2023-03-04T05:23:27;102619.78;;;4.54;74.53
51289;BME280;37372;52.294;5.152;2023-03-04T05:25:53;102615.78;;;4.58;74.55
51289;BME280;37372;52.294;5.152;2023-03-04T05:28:19;102618.06;;;4.53;74.76
51289;BME280;37372;52.294;5.152;2023-03-04T05:30:45;102617.81;;;4.47;75.28
51289;BME280;37372;52.294;5.152;2023-03-04T05:33:13;102614.66;;;4.51;75.21
51289;BME280;37372;52.294;5.152;2023-03-04T05:35:40;102618.06;;;4.53;74.98
51289;BME280;37372;52.294;5.152;2023-03-04T05:38:11;102613.22;;;4.47;75.34
51289;BME280;37372;52.294;5.152;2023-03-04T05:40:37;102618.66;;;4.47;75.96
51289;BME280;37372;52.294;5.152;2023-03-04T05:43:03;102617.22;;;4.43;75.84
51289;BME280;37372;52.294;5.152;2023-03-04T05:45:29;102615.66;;;4.41;76.03
51289;BME280;37372;52.294;5.152;2023-03-04T05:47:54;102613.38;;;4.36;76.16
51289;BME280;37372;52.294;5.152;2023-03-04T05:50:27;102612.09;;;4.30;76.32
51289;BME280;37372;52.294;5.152;2023-03-04T05:52:56;102617.53;;;4.40;76.33
51289;BME280;37372;52.294;5.152;2023-03-04T05:55:21;102611.69;;;4.35;76.43
51289;BME280;37372;52.294;5.152;2023-03-04T05:57:56;102616.53;;;4.41;76.28
51289;BME280;37372;52.294;5.152;2023-03-04T06:00:21;102615.25;;;4.45;76.22
51289;BME280;37372;52.294;5.152;2023-03-04T06:02:50;102614.97;;;4.39;77.08
51289;BME280;37372;52.294;5.152;2023-03-04T06:05:19;102611.25;;;4.40;77.35
51289;BME280;37372;52.294;5.152;2023-03-04T06:07:57;102606.41;;;4.33;78.03
51289;BME280;37372;52.294;5.152;2023-03-04T06:10:23;102599.25;;;4.32;78.72
51289;BME280;37372;52.294;5.152;2023-03-04T06:13:03;102601.41;;;4.29;78.36
51289;BME280;37372;52.294;5.152;2023-03-04T06:15:32;102598.13;;;4.25;78.69
51289;BME280;37372;52.294;5.152;2023-03-04T06:18:00;102598.25;;;4.33;78.57
51289;BME280;37372;52.294;5.152;2023-03-04T06:20:26;102600.97;;;4.33;78.35
51289;BME280;37372;52.294;5.152;2023-03-04T06:22:52;102608.53;;;4.40;77.98
51289;BME280;37372;52.294;5.152;2023-03-04T06:25:25;102610.09;;;4.42;77.58
51289;BME280;37372;52.294;5.152;2023-03-04T06:27:54;102614.13;;;4.38;77.77
51289;BME280;37372;52.294;5.152;2023-03-04T06:30:19;102611.09;;;4.41;77.60
51289;BME280;37372;52.294;5.152;2023-03-04T06:32:51;102617.22;;;4.43;76.82
51289;BME280;37372;52.294;5.152;2023-03-04T06:35:43;102619.94;;;4.43;77.27
51289;BME280;37372;52.294;5.152;2023-03-04T06:38:10;102622.13;;;4.40;77.88
51289;BME280;37372;52.294;5.152;2023-03-04T06:40:36;102625.81;;;4.48;77.64
51289;BME280;37372;52.294;5.152;2023-03-04T06:43:02;102625.47;;;4.61;76.86
51289;BME280;37372;52.294;5.152;2023-03-04T06:45:30;102629.94;;;4.52;77.39
51289;BME280;37372;52.294;5.152;2023-03-04T06:47:56;102627.22;;;4.52;77.59
51289;BME280;37372;52.294;5.152;2023-03-04T06:50:22;102625.91;;;4.56;77.43
51289;BME280;37372;52.294;5.152;2023-03-04T06:52:50;102626.50;;;4.50;78.05
51289;BME280;37372;52.294;5.152;2023-03-04T06:55:23;102627.50;;;4.49;77.98
51289;BME280;37372;52.294;5.152;2023-03-04T06:57:49;102630.50;;;4.56;78.06
51289;BME280;37372;52.294;5.152;2023-03-04T07:00:16;102631.50;;;4.65;77.49
51289;BME280;37372;52.294;5.152;2023-03-04T07:05:37;102633.31;;;4.74;77.30
51289;BME280;37372;52.294;5.152;2023-03-04T07:08:13;102628.56;;;4.76;77.48
51289;BME280;37372;52.294;5.152;2023-03-04T07:10:38;102628.09;;;4.90;76.61
51289;BME280;37372;52.294;5.152;2023-03-04T07:13:04;102631.81;;;4.89;77.33
51289;BME280;37372;52.294;5.152;2023-03-04T07:15:29;102625.66;;;4.87;77.08
51289;BME280;37372;52.294;5.152;2023-03-04T07:17:59;102635.84;;;4.85;77.41
51289;BME280;37372;52.294;5.152;2023-03-04T07:20:45;102626.19;;;5.00;76.79
51289;BME280;37372;52.294;5.152;2023-03-04T07:23:11;102637.81;;;4.93;76.99
51289;BME280;37372;52.294;5.152;2023-03-04T07:25:36;102638.50;;;4.95;77.27
51289;BME280;37372;52.294;5.152;2023-03-04T07:28:05;102639.94;;;4.99;77.33
51289;BME280;37372;52.294;5.152;2023-03-04T07:30:35;102646.22;;;4.99;77.21
51289;BME280;37372;52.294;5.152;2023-03-04T07:33:01;102636.47;;;5.06;76.71
51289;BME280;37372;52.294;5.152;2023-03-04T07:35:35;102638.31;;;5.06;76.81
51289;BME280;37372;52.294;5.152;2023-03-04T07:38:22;102633.03;;;5.04;77.14
51289;BME280;37372;52.294;5.152;2023-03-04T07:40:54;102643.31;;;5.10;76.34
51289;BME280;37372;52.294;5.152;2023-03-04T07:43:22;102654.69;;;5.24;76.13
51289;BME280;37372;52.294;5.152;2023-03-04T07:45:48;102647.00;;;5.19;76.57
51289;BME280;37372;52.294;5.152;2023-03-04T07:48:13;102648.34;;;5.33;76.17
51289;BME280;37372;52.294;5.152;2023-03-04T07:50:39;102646.34;;;5.35;76.21
51289;BME280;37372;52.294;5.152;2023-03-04T07:53:07;102649.25;;;5.24;77.06
51289;BME280;37372;52.294;5.152;2023-03-04T07:55:33;102638.72;;;5.38;76.29
51289;BME280;37372;52.294;5.152;2023-03-04T07:58:15;102644.59;;;5.34;76.69
51289;BME280;37372;52.294;5.152;2023-03-04T08:00:44;102648.31;;;5.42;77.40
51289;BME280;37372;52.294;5.152;2023-03-04T08:03:10;102647.94;;;5.55;76.74
51289;BME280;37372;52.294;5.152;2023-03-04T08:05:38;102650.66;;;5.55;76.80
51289;BME280;37372;52.294;5.152;2023-03-04T08:08:30;102654.09;;;5.75;76.50
51289;BME280;37372;52.294;5.152;2023-03-04T08:10:54;102653.63;;;5.80;75.98
51289;BME280;37372;52.294;5.152;2023-03-04T08:13:20;102657.97;;;5.72;76.52
51289;BME280;37372;52.294;5.152;2023-03-04T08:15:45;102654.25;;;5.74;76.07
51289;BME280;37372;52.294;5.152;2023-03-04T08:18:23;102662.78;;;5.79;75.89
51289;BME280;37372;52.294;5.152;2023-03-04T08:20:49;102659.31;;;5.86;75.62
51289;BME280;37372;52.294;5.152;2023-03-04T08:23:25;102658.13;;;5.89;74.88
51289;BME280;37372;52.294;5.152;2023-03-04T08:25:50;102663.19;;;5.84;75.94
51289;BME280;37372;52.294;5.152;2023-03-04T08:28:25;102657.22;;;5.98;75.19
51289;BME280;37372;52.294;5.152;2023-03-04T08:30:53;102658.25;;;5.97;76.00
51289;BME280;37372;52.294;5.152;2023-03-04T08:33:19;102656.13;;;6.09;75.98
51289;BME280;37372;52.294;5.152;2023-03-04T08:35:46;102665.44;;;6.24;74.97
51289;BME280;37372;52.294;5.152;2023-03-04T08:38:15;102662.44;;;6.27;75.10
51289;BME280;37372;52.294;5.152;2023-03-04T08:40:43;102663.97;;;6.30;75.71
51289;BME280;37372;52.294;5.152;2023-03-04T08:43:17;102661.41;;;6.28;75.65
51289;BME280;37372;52.294;5.152;2023-03-04T08:45:42;102666.41;;;6.33;76.53
51289;BME280;37372;52.294;5.152;2023-03-04T08:48:15;102659.06;;;6.33;75.78
51289;BME280;37372;52.294;5.152;2023-03-04T08:50:43;102666.78;;;6.38;76.14
51289;BME280;37372;52.294;5.152;2023-03-04T08:53:29;102661.25;;;6.30;76.52
51289;BME280;37372;52.294;5.152;2023-03-04T08:55:54;102663.75;;;6.23;77.51
51289;BME280;37372;52.294;5.152;2023-03-04T08:58:23;102666.88;;;6.28;78.39
51289;BME280;37372;52.294;5.152;2023-03-04T09:00:49;102661.84;;;6.41;78.29
51289;BME280;37372;52.294;5.152;2023-03-04T09:03:26;102665.66;;;6.48;77.56
51289;BME280;37372;52.294;5.152;2023-03-04T09:05:53;102664.09;;;6.46;77.19
51289;BME280;37372;52.294;5.152;2023-03-04T09:08:34;102661.81;;;6.33;76.89
51289;BME280;37372;52.294;5.152;2023-03-04T09:11:00;102661.44;;;6.54;77.53
51289;BME280;37372;52.294;5.152;2023-03-04T09:13:32;102662.47;;;6.53;76.80
51289;BME280;37372;52.294;5.152;2023-03-04T09:15:59;102662.63;;;6.51;76.97
51289;BME280;37372;52.294;5.152;2023-03-04T09:18:25;102662.94;;;6.48;76.77
51289;BME280;37372;52.294;5.152;2023-03-04T09:20:50;102654.03;;;6.64;76.33
51289;BME280;37372;52.294;5.152;2023-03-04T09:24:12;102648.34;;;6.84;75.56
51289;BME280;37372;52.294;5.152;2023-03-04T09:26:23;102654.09;;;6.81;75.99
51289;BME280;37372;52.294;5.152;2023-03-04T09:28:54;102651.38;;;6.55;77.09
51289;BME280;37372;52.294;5.152;2023-03-04T09:31:20;102659.50;;;6.46;78.49
51289;BME280;37372;52.294;5.152;2023-03-04T09:33:46;102660.91;;;6.50;78.89
51289;BME280;37372;52.294;5.152;2023-03-04T09:36:13;102652.75;;;6.50;78.88
51289;BME280;37372;52.294;5.152;2023-03-04T09:38:43;102656.81;;;6.29;79.48
51289;BME280;37372;52.294;5.152;2023-03-04T09:41:15;102650.44;;;6.38;79.91
51289;BME280;37372;52.294;5.152;2023-03-04T09:43:52;102652.22;;;6.55;78.91
51289;BME280;37372;52.294;5.152;2023-03-04T09:46:30;102648.19;;;6.59;78.26
51289;BME280;37372;52.294;5.152;2023-03-04T09:48:56;102650.09;;;6.67;77.94
51289;BME280;37372;52.294;5.152;2023-03-04T09:56:56;102645.41;;;7.11;75.52
51289;BME280;37372;52.294;5.152;2023-03-04T09:59:34;102638.25;;;7.18;75.33
51289;BME280;37372;52.294;5.152;2023-03-04T10:02:34;102646.16;;;6.95;75.46
51289;BME280;37372;52.294;5.152;2023-03-04T10:05:03;102644.75;;;6.83;75.87
51289;BME280;37372;52.294;5.152;2023-03-04T10:07:57;102648.44;;;6.48;78.24
51289;BME280;37372;52.294;5.152;2023-03-04T10:10:44;102643.84;;;6.48;79.37
51289;BME280;37372;52.294;5.152;2023-03-04T10:13:15;102648.16;;;6.33;80.52
51289;BME280;37372;52.294;5.152;2023-03-04T10:16:05;102642.88;;;6.32;79.95
51289;BME280;37372;52.294;5.152;2023-03-04T10:18:45;102631.16;;;6.13;82.03
51289;BME280;37372;52.294;5.152;2023-03-04T10:21:29;102633.53;;;6.16;82.88
51289;BME280;37372;52.294;5.152;2023-03-04T10:23:56;102628.06;;;6.34;82.46
51289;BME280;37372;52.294;5.152;2023-03-04T10:26:22;102638.16;;;6.42;82.23
51289;BME280;37372;52.294;5.152;2023-03-04T10:28:53;102629.81;;;6.17;82.78
51289;BME280;37372;52.294;5.152;2023-03-04T10:31:34;102631.38;;;6.20;83.10
51289;BME280;37372;52.294;5.152;2023-03-04T10:34:03;102622.41;;;6.28;83.82
51289;BME280;37372;52.294;5.152;2023-03-04T10:39:10;102621.34;;;6.46;83.97
51289;BME280;37372;52.294;5.152;2023-03-04T10:41:45;102626.59;;;6.66;83.04
51289;BME280;37372;52.294;5.152;2023-03-04T10:44:18;102622.50;;;6.96;82.84
51289;BME280;37372;52.294;5.152;2023-03-04T10:46:47;102626.22;;;6.95;81.30
51289;BME280;37372;52.294;5.152;2023-03-04T10:57:56;102639.94;;;6.77;79.55
51289;BME280;37372;52.294;5.152;2023-03-04T11:05:31;102636.84;;;6.46;80.16
51289;BME280;37372;52.294;5.152;2023-03-04T11:12:00;102632.28;;;6.81;79.79
51289;BME280;37372;52.294;5.152;2023-03-04T11:14:35;102631.63;;;6.87;77.89
51289;BME280;37372;52.294;5.152;2023-03-04T12:52:35;102571.00;;;6.67;71.50
51289;BME280;37372;52.294;5.152;2023-03-04T13:12:59;102551.56;;;7.04;70.17
51289;BME280;37372;52.294;5.152;2023-03-04T14:02:49;102517.44;;;6.92;65.39
51289;BME280;37372;52.294;5.152;2023-03-04T14:09:35;102518.91;;;6.78;65.90
51289;BME280;37372;52.294;5.152;2023-03-04T14:12:24;102523.81;;;6.66;66.31
51289;BME280;37372;52.294;5.152;2023-03-04T14:18:14;102514.41;;;6.61;67.07
51289;BME280;37372;52.294;5.152;2023-03-04T14:21:18;102513.00;;;6.57;68.00
51289;BME280;37372;52.294;5.152;2023-03-04T14:27:23;102520.88;;;6.26;71.40
51289;BME280;37372;52.294;5.152;2023-03-04T14:30:24;102518.38;;;6.32;70.22
51289;BME280;37372;52.294;5.152;2023-03-04T14:33:42;102523.75;;;5.98;71.42
51289;BME280;37372;52.294;5.152;2023-03-04T14:36:42;102507.69;;;6.13;71.39
51289;BME280;37372;52.294;5.152;2023-03-04T14:46:41;102495.66;;;6.58;67.36
51289;BME280;37372;52.294;5.152;2023-03-04T14:49:12;102493.25;;;6.55;68.64
51289;BME280;37372;52.294;5.152;2023-03-04T14:51:58;102481.22;;;6.73;68.48
51289;BME280;37372;52.294;5.152;2023-03-04T14:58:26;102473.69;;;6.67;67.01
51289;BME280;37372;52.294;5.152;2023-03-04T15:01:15;102472.75;;;6.85;66.70
51289;BME280;37372;52.294;5.152;2023-03-04T15:07:28;102464.09;;;7.05;66.47
51289;BME280;37372;52.294;5.152;2023-03-04T15:16:57;102460.16;;;6.49;67.67
51289;BME280;37372;52.294;5.152;2023-03-04T15:23:00;102456.63;;;6.57;67.73
51289;BME280;37372;52.294;5.152;2023-03-04T15:25:34;102458.34;;;6.66;67.88
51289;BME280;37372;52.294;5.152;2023-03-04T15:28:29;102453.63;;;6.76;66.09
51289;BME280;37372;52.294;5.152;2023-03-04T15:31:14;102454.13;;;6.80;66.69
51289;BME280;37372;52.294;5.152;2023-03-04T15:33:45;102457.50;;;6.58;66.95
51289;BME280;37372;52.294;5.152;2023-03-04T15:36:21;102458.06;;;6.77;65.55
51289;BME280;37372;52.294;5.152;2023-03-04T15:38:53;102457.34;;;6.75;65.76
51289;BME280;37372;52.294;5.152;2023-03-04T15:41:22;102450.72;;;6.78;65.01
51289;BME280;37372;52.294;5.152;2023-03-04T15:44:12;102444.91;;;6.73;63.76
51289;BME280;37372;52.294;5.152;2023-03-04T15:46:55;102451.19;;;6.65;63.39
51289;BME280;37372;52.294;5.152;2023-03-04T15:56:27;102451.78;;;6.43;62.33
51289;BME280;37372;52.294;5.152;2023-03-04T16:02:28;102451.97;;;6.41;60.68
51289;BME280;37372;52.294;5.152;2023-03-04T16:04:56;102441.94;;;6.50;60.73
51289;BME280;37372;52.294;5.152;2023-03-04T16:07:29;102437.81;;;6.38;60.47
51289;BME280;37372;52.294;5.152;2023-03-04T16:09:58;102433.22;;;6.38;58.85
51289;BME280;37372;52.294;5.152;2023-03-04T16:12:51;102434.00;;;6.31;58.72
51289;BME280;37372;52.294;5.152;2023-03-04T16:15:50;102429.94;;;6.27;59.28
51289;BME280;37372;52.294;5.152;2023-03-04T16:18:46;102431.63;;;6.28;59.10
51289;BME280;37372;52.294;5.152;2023-03-04T16:21:17;102433.03;;;6.32;59.38
51289;BME280;37372;52.294;5.152;2023-03-04T16:24:14;102440.63;;;6.20;59.18
51289;BME280;37372;52.294;5.152;2023-03-04T16:26:59;102440.09;;;6.16;59.82
51289;BME280;37372;52.294;5.152;2023-03-04T16:32:52;102434.22;;;6.03;61.21
51289;BME280;37372;52.294;5.152;2023-03-04T16:35:27;102437.50;;;6.07;61.91
51289;BME280;37372;52.294;5.152;2023-03-04T16:45:40;102428.78;;;6.03;64.45
51289;BME280;37372;52.294;5.152;2023-03-04T16:52:28;102425.75;;;6.06;64.94
51289;BME280;37372;52.294;5.152;2023-03-04T16:59:05;102425.63;;;5.90;64.81
51289;BME280;37372;52.294;5.152;2023-03-04T17:02:00;102425.47;;;5.91;63.71
51289;BME280;37372;52.294;5.152;2023-03-04T17:08:13;102435.78;;;5.80;63.98
51289;BME280;37372;52.294;5.152;2023-03-04T17:10:46;102426.59;;;5.81;64.41
51289;BME280;37372;52.294;5.152;2023-03-04T17:13:57;102425.88;;;5.79;64.60
51289;BME280;37372;52.294;5.152;2023-03-04T17:16:30;102430.97;;;5.74;63.07
51289;BME280;37372;52.294;5.152;2023-03-04T17:19:04;102433.34;;;5.77;63.05
51289;BME280;37372;52.294;5.152;2023-03-04T17:21:30;102438.25;;;5.73;62.48
51289;BME280;37372;52.294;5.152;2023-03-04T17:23:55;102431.97;;;5.72;63.13
51289;BME280;37372;52.294;5.152;2023-03-04T17:26:26;102434.38;;;5.76;63.33
51289;BME280;37372;52.294;5.152;2023-03-04T17:28:57;102438.38;;;5.63;64.66
51289;BME280;37372;52.294;5.152;2023-03-04T17:31:26;102439.81;;;5.50;65.23
51289;BME280;37372;52.294;5.152;2023-03-04T17:33:58;102437.78;;;5.52;65.42
51289;BME280;37372;52.294;5.152;2023-03-04T17:36:24;102448.28;;;5.47;66.22
51289;BME280;37372;52.294;5.152;2023-03-04T17:38:55;102447.81;;;5.51;66.22
51289;BME280;37372;52.294;5.152;2023-03-04T17:41:21;102464.25;;;5.41;67.31
51289;BME280;37372;52.294;5.152;2023-03-04T17:43:57;102453.50;;;5.40;67.43
51289;BME280;37372;52.294;5.152;2023-03-04T17:46:26;102459.03;;;5.48;66.80
51289;BME280;37372;52.294;5.152;2023-03-04T17:48:57;102452.66;;;5.39;67.74
51289;BME280;37372;52.294;5.152;2023-03-04T17:51:38;102452.88;;;5.46;67.43
51289;BME280;37372;52.294;5.152;2023-03-04T17:54:10;102463.41;;;5.41;67.57